createdAt,value
2023-04-30T00:01:35.993Z,3.90
2023-04-30T00:06:37.407Z,3.83
2023-04-30T00:11:38.826Z,3.50
2023-04-30T00:16:40.340Z,3.30
2023-04-30T00:21:42.449Z,3.73
2023-04-30T00:26:44.012Z,3.73
2023-04-30T00:31:45.533Z,4.30
2023-04-30T00:36:46.940Z,3.87
2023-04-30T00:41:48.303Z,3.30
2023-04-30T00:46:49.670Z,3.67
2023-04-30T00:51:51.120Z,3.90
2023-04-30T00:56:52.444Z,3.07
2023-04-30T01:01:53.940Z,3.27
2023-04-30T01:06:56.611Z,3.43
2023-04-30T01:11:57.997Z,3.63
2023-04-30T01:17:18.507Z,3.47
2023-04-30T01:22:26.041Z,3.67
2023-04-30T01:27:34.177Z,3.80
2023-04-30T01:32:35.898Z,3.47
2023-04-30T01:37:47.502Z,3.40
2023-04-30T01:43:07.722Z,3.77
2023-04-30T01:48:15.416Z,4.03
2023-04-30T01:53:19.986Z,3.80
2023-04-30T02:03:23.034Z,4.10
2023-04-30T02:08:24.723Z,4.73
2023-04-30T02:13:26.105Z,3.97
2023-04-30T02:18:27.473Z,3.37
2023-04-30T02:23:29.010Z,3.20
2023-04-30T02:28:30.664Z,3.73
2023-04-30T02:33:31.975Z,3.97
2023-04-30T02:38:33.366Z,3.80
2023-04-30T02:43:34.671Z,3.70
2023-04-30T02:48:36.130Z,3.80
2023-04-30T02:53:37.486Z,4.20
2023-04-30T02:58:38.848Z,3.70
2023-04-30T03:03:41.321Z,4.40
2023-04-30T03:08:42.669Z,3.80
2023-04-30T03:13:44.046Z,4.00
2023-04-30T03:18:45.786Z,3.83
2023-04-30T03:23:47.219Z,4.53
2023-04-30T03:28:49.371Z,5.20
2023-04-30T03:33:51.018Z,3.80
2023-04-30T03:38:52.473Z,4.70
2023-04-30T03:43:54.519Z,5.23
2023-04-30T03:48:55.898Z,4.20
2023-04-30T03:53:57.205Z,4.00
2023-04-30T03:58:58.637Z,4.40
2023-04-30T04:04:01.360Z,4.77
2023-04-30T04:09:04.289Z,3.90
2023-04-30T04:14:05.843Z,4.97
2023-04-30T04:19:07.224Z,4.47
2023-04-30T04:24:08.718Z,5.37
2023-04-30T04:29:10.906Z,4.97
2023-04-30T04:34:12.610Z,4.80
2023-04-30T04:39:14.431Z,4.40
2023-04-30T04:44:15.816Z,4.53
2023-04-30T04:49:17.141Z,4.80
2023-04-30T04:54:18.452Z,4.80
2023-04-30T04:59:19.842Z,4.80
2023-04-30T05:04:21.241Z,4.33
2023-04-30T05:09:22.636Z,3.97
2023-04-30T05:14:24.046Z,4.40
2023-04-30T05:19:25.680Z,3.70
2023-04-30T05:24:28.265Z,3.63
2023-04-30T05:29:29.783Z,4.47
2023-04-30T05:34:32.153Z,4.33
2023-04-30T05:39:33.510Z,5.60
2023-04-30T05:44:34.885Z,3.87
2023-04-30T05:49:36.527Z,3.23
2023-04-30T05:54:37.883Z,3.27
2023-04-30T05:59:39.409Z,2.95
2023-04-30T06:04:40.750Z,3.30
2023-04-30T06:09:42.077Z,3.25
2023-04-30T06:14:45.370Z,3.10
2023-04-30T06:19:46.723Z,2.72
2023-04-30T06:24:48.104Z,3.80
2023-04-30T06:29:49.430Z,2.35
2023-04-30T06:34:50.741Z,2.10
2023-04-30T06:39:52.109Z,1.90
2023-04-30T06:44:55.389Z,2.05
2023-04-30T06:49:56.931Z,2.42
2023-04-30T06:54:58.488Z,2.10
2023-04-30T07:00:00.516Z,2.20
2023-04-30T07:05:02.100Z,1.80
2023-04-30T07:10:03.816Z,1.98
2023-04-30T07:15:05.533Z,1.70
2023-04-30T07:20:07.837Z,2.00
2023-04-30T07:25:09.337Z,1.92
2023-04-30T07:30:10.761Z,1.85
2023-04-30T07:35:12.178Z,2.28
2023-04-30T07:40:19.339Z,1.90
2023-04-30T07:45:26.658Z,1.80
2023-04-30T07:50:29.593Z,2.53
2023-04-30T07:55:31.201Z,2.05
2023-04-30T08:00:32.554Z,2.38
2023-04-30T08:05:33.954Z,1.85
2023-04-30T08:10:36.900Z,4.38
2023-04-30T08:15:39.992Z,1.83
2023-04-30T08:20:41.530Z,2.10
2023-04-30T08:25:42.908Z,1.77
2023-04-30T08:30:44.598Z,1.92
2023-04-30T08:35:45.957Z,1.77
2023-04-30T08:40:56.468Z,1.70
2023-04-30T08:45:58.574Z,1.67
2023-04-30T08:51:03.894Z,2.00
2023-04-30T08:56:05.802Z,2.20
2023-04-30T09:01:07.757Z,1.73
2023-04-30T09:06:09.248Z,1.98
2023-04-30T09:11:27.034Z,1.77
2023-04-30T09:16:32.898Z,1.80
2023-04-30T09:21:35.520Z,1.80
2023-04-30T09:26:37.790Z,2.15
2023-04-30T09:31:39.958Z,1.83
2023-04-30T09:36:56.545Z,1.30
2023-04-30T09:42:08.078Z,1.45
2023-04-30T09:47:14.248Z,1.50
2023-04-30T09:52:15.781Z,1.98
2023-04-30T09:57:18.969Z,1.48
2023-04-30T10:02:22.545Z,1.20
2023-04-30T10:07:25.178Z,1.73
2023-04-30T10:12:46.763Z,1.67
2023-04-30T10:17:50.675Z,2.00
2023-04-30T10:22:53.134Z,1.50
2023-04-30T10:27:54.742Z,1.60
2023-04-30T10:33:16.672Z,2.08
2023-04-30T10:38:22.689Z,1.65
2023-04-30T10:43:24.504Z,1.60
2023-04-30T10:48:27.227Z,2.08
2023-04-30T10:56:44.894Z,1.58
2023-04-30T11:07:10.249Z,1.80
2023-04-30T11:12:12.767Z,1.40
2023-04-30T11:17:22.445Z,1.30
2023-04-30T11:22:48.131Z,2.35
2023-04-30T11:27:50.198Z,1.70
2023-04-30T12:14:24.995Z,2.08
2023-04-30T12:19:26.858Z,1.95
2023-04-30T12:24:28.295Z,1.48
2023-04-30T12:29:29.922Z,1.60
2023-04-30T12:34:33.780Z,1.70
2023-04-30T12:44:44.523Z,1.25
2023-04-30T12:49:48.787Z,1.40
2023-04-30T12:54:50.126Z,1.90
2023-04-30T13:00:00.787Z,1.35
2023-04-30T13:05:02.404Z,1.83
2023-04-30T13:10:03.987Z,2.00
2023-04-30T13:15:05.678Z,1.35
2023-04-30T13:20:07.569Z,1.80
2023-04-30T13:25:09.094Z,1.60
2023-04-30T13:30:10.714Z,1.30
2023-04-30T13:35:12.200Z,1.42
2023-04-30T13:40:13.574Z,1.33
2023-04-30T13:45:15.168Z,1.75
2023-04-30T13:50:16.790Z,1.92
2023-04-30T13:55:18.149Z,1.40
2023-04-30T14:00:19.650Z,1.30
2023-04-30T14:05:21.574Z,1.50
2023-04-30T14:10:23.763Z,1.52
2023-04-30T14:15:25.181Z,3.00
2023-04-30T14:20:26.717Z,2.10
2023-04-30T14:25:28.098Z,1.88
2023-04-30T14:30:29.539Z,2.80
2023-04-30T14:35:30.877Z,1.40
2023-04-30T14:40:32.213Z,1.67
2023-04-30T14:45:33.910Z,1.30
2023-04-30T14:50:35.318Z,1.60
2023-04-30T14:55:36.935Z,2.47
2023-04-30T15:00:38.323Z,1.60
2023-04-30T15:05:42.740Z,1.20
2023-04-30T15:10:44.818Z,1.23
2023-04-30T15:15:47.139Z,2.60
2023-04-30T15:20:48.745Z,1.88
2023-04-30T15:25:50.105Z,1.30
2023-04-30T15:30:52.326Z,1.48
2023-04-30T15:35:53.986Z,2.05
2023-04-30T15:40:55.398Z,2.10
2023-04-30T15:45:56.733Z,2.78
2023-04-30T15:50:58.579Z,1.77
2023-04-30T15:55:59.993Z,1.63
2023-04-30T16:01:01.939Z,2.00
2023-04-30T16:06:03.482Z,3.67
2023-04-30T16:11:04.874Z,1.88
2023-04-30T16:16:08.485Z,2.08
2023-04-30T16:21:10.184Z,2.03
2023-04-30T16:26:11.567Z,2.15
2023-04-30T16:31:15.418Z,1.90
2023-04-30T16:36:16.945Z,1.55
2023-04-30T16:41:18.340Z,1.50
2023-04-30T16:46:19.867Z,4.18
2023-04-30T16:51:21.303Z,2.00
2023-04-30T16:56:22.649Z,3.38
2023-04-30T17:01:24.176Z,2.40
2023-04-30T17:06:26.394Z,1.60
2023-04-30T17:11:27.914Z,2.63
2023-04-30T17:16:29.347Z,2.17
2023-04-30T17:21:37.624Z,2.70
2023-04-30T17:26:38.976Z,1.95
2023-04-30T17:31:40.771Z,2.33
2023-04-30T17:36:42.808Z,9.95
2023-04-30T17:41:44.505Z,3.65
2023-04-30T17:46:46.315Z,3.90
2023-04-30T17:58:53.268Z,2.47
2023-04-30T18:03:55.194Z,2.05
2023-04-30T18:09:01.041Z,2.00
2023-04-30T18:14:02.585Z,1.48
2023-04-30T18:19:04.181Z,2.42
2023-04-30T18:24:05.820Z,3.05
2023-04-30T18:29:07.886Z,2.92
2023-04-30T18:34:09.309Z,2.53
2023-04-30T18:39:12.398Z,2.30
2023-04-30T18:44:13.862Z,3.30
2023-04-30T18:49:15.729Z,3.35
2023-04-30T18:54:17.490Z,7.88
2023-04-30T18:59:19.193Z,2.70
2023-04-30T19:04:20.569Z,3.30
2023-04-30T19:09:21.955Z,2.58
2023-04-30T19:14:23.285Z,2.85
2023-04-30T19:19:24.666Z,2.70
2023-04-30T19:24:26.033Z,2.72
2023-04-30T19:29:29.594Z,2.70
2023-04-30T19:34:31.226Z,2.87
2023-04-30T19:39:33.915Z,3.10
2023-04-30T19:44:35.895Z,2.28
2023-04-30T19:49:37.244Z,3.22
2023-04-30T19:54:38.572Z,3.20
2023-04-30T19:59:39.915Z,3.85
2023-04-30T20:04:41.579Z,4.15
2023-04-30T20:09:42.954Z,5.63
2023-04-30T20:14:44.421Z,6.53
2023-04-30T20:19:45.912Z,5.20
2023-04-30T20:24:48.112Z,5.03
2023-04-30T20:29:49.465Z,5.72
2023-04-30T20:34:51.320Z,6.25
2023-04-30T20:39:52.975Z,6.97
2023-04-30T20:44:55.216Z,6.63
2023-04-30T20:49:57.465Z,7.45
2023-04-30T20:54:59.576Z,6.30
2023-04-30T21:00:01.631Z,5.78
2023-04-30T21:05:04.636Z,6.75
2023-04-30T21:10:06.459Z,7.05
2023-04-30T21:15:08.984Z,7.83
2023-04-30T21:20:10.659Z,8.70
2023-04-30T21:25:12.251Z,8.13
2023-04-30T21:30:16.866Z,7.22
2023-04-30T21:40:19.499Z,7.67
2023-04-30T21:45:20.869Z,7.73
2023-04-30T21:50:23.702Z,7.03
2023-04-30T21:55:26.601Z,8.13
2023-04-30T22:00:28.103Z,8.67
2023-04-30T22:05:29.510Z,7.90
2023-04-30T22:10:31.610Z,8.20
2023-04-30T22:15:47.105Z,7.87
2023-04-30T22:20:49.840Z,7.83
2023-04-30T22:25:51.574Z,7.87
2023-04-30T22:30:59.747Z,8.40
2023-04-30T22:36:01.386Z,8.37
2023-04-30T22:41:03.632Z,8.27
2023-04-30T22:46:05.156Z,8.43
2023-04-30T22:51:06.737Z,7.93
2023-04-30T22:56:08.292Z,8.27
2023-04-30T23:01:09.868Z,7.87
2023-04-30T23:06:11.789Z,8.10
2023-04-30T23:11:13.270Z,8.43
2023-04-30T23:16:14.616Z,7.00
2023-04-30T23:21:16.002Z,7.00
2023-04-30T23:26:17.604Z,7.20
2023-04-30T23:31:18.961Z,6.97
2023-04-30T23:36:20.359Z,6.77
2023-04-30T23:41:21.739Z,7.20
2023-04-30T23:46:23.174Z,5.73
2023-04-30T23:51:24.608Z,5.20
2023-04-30T23:56:25.978Z,5.53
